createdAt,value
2018-09-15T00:05:11.134Z,12.23
2018-09-15T00:10:29.978Z,12.13
2018-09-15T00:15:48.772Z,15.70
2018-09-15T00:21:07.527Z,12.50
2018-09-15T00:26:26.056Z,20.23
2018-09-15T00:31:44.844Z,15.27
2018-09-15T00:37:05.124Z,14.87
2018-09-15T00:42:24.598Z,14.17
2018-09-15T00:47:43.656Z,15.57
2018-09-15T00:53:02.428Z,14.23
2018-09-15T00:58:20.983Z,17.10
2018-09-15T01:03:39.837Z,9.40
2018-09-15T01:08:58.862Z,12.97
2018-09-15T01:14:17.550Z,17.03
2018-09-15T01:19:36.412Z,12.77
2018-09-15T01:24:55.039Z,15.13
2018-09-15T01:30:13.682Z,14.75
2018-09-15T01:35:32.531Z,13.03
2018-09-15T01:40:51.056Z,14.20
2018-09-15T01:46:09.759Z,12.97
2018-09-15T01:51:29.889Z,13.53
2018-09-15T01:56:49.201Z,14.57
2018-09-15T02:02:07.727Z,11.47
2018-09-15T02:07:26.277Z,9.37
2018-09-15T02:12:44.970Z,16.40
2018-09-15T02:18:03.592Z,13.63
2018-09-15T02:23:22.167Z,14.50
2018-09-15T02:28:40.707Z,12.53
2018-09-15T02:34:00.291Z,13.57
2018-09-15T02:39:18.932Z,15.18
2018-09-15T02:44:37.669Z,14.07
2018-09-15T02:49:56.260Z,13.07
2018-09-15T02:55:16.234Z,19.30
2018-09-15T03:00:34.759Z,11.90
2018-09-15T03:05:53.918Z,13.33
2018-09-15T03:11:12.422Z,10.73
2018-09-15T03:16:31.730Z,9.57
2018-09-15T03:21:51.149Z,13.80
2018-09-15T03:27:09.894Z,9.13
2018-09-15T03:32:28.727Z,8.90
2018-09-15T03:37:47.299Z,9.83
2018-09-15T03:43:06.881Z,14.70
2018-09-15T03:48:25.766Z,16.17
2018-09-15T03:53:44.965Z,11.17
2018-09-15T03:59:04.153Z,12.07
2018-09-15T04:04:23.034Z,7.30
2018-09-15T04:09:41.651Z,8.53
2018-09-15T04:15:00.308Z,8.40
2018-09-15T04:20:18.860Z,8.13
2018-09-15T04:25:37.678Z,8.03
2018-09-15T04:30:56.262Z,18.83
2018-09-15T04:36:15.524Z,9.20
2018-09-15T04:41:34.139Z,11.43
2018-09-15T04:46:52.654Z,8.10
2018-09-15T04:52:11.636Z,10.83
2018-09-15T04:57:30.881Z,12.87
2018-09-15T05:02:49.471Z,10.23
2018-09-15T05:08:08.007Z,12.90
2018-09-15T05:13:27.159Z,12.60
2018-09-15T05:18:45.721Z,9.27
2018-09-15T05:24:04.304Z,10.37
2018-09-15T05:29:23.043Z,11.43
2018-09-15T05:34:41.682Z,14.00
2018-09-15T05:39:59.652Z,10.10
2018-09-15T05:45:18.307Z,13.27
2018-09-15T05:50:36.881Z,9.60
2018-09-15T05:55:56.631Z,9.10
2018-09-15T06:01:15.211Z,11.90
2018-09-15T06:06:34.036Z,12.37
2018-09-15T06:11:53.616Z,10.60
2018-09-15T06:17:12.117Z,9.43
2018-09-15T06:22:30.651Z,13.10
2018-09-15T06:27:49.325Z,11.33
2018-09-15T06:33:07.907Z,15.47
2018-09-15T06:38:26.468Z,14.27
2018-09-15T06:43:45.148Z,12.80
2018-09-15T06:49:04.354Z,13.87
2018-09-15T06:54:23.902Z,13.70
2018-09-15T06:59:42.566Z,20.00
2018-09-15T07:29:31.586Z,16.07
2018-09-15T07:34:50.169Z,11.87
2018-09-15T07:40:08.673Z,11.60
2018-09-15T07:45:27.289Z,14.70
2018-09-15T07:50:45.815Z,13.80
2018-09-15T07:56:04.345Z,14.20
2018-09-15T08:01:22.877Z,15.03
2018-09-15T08:06:41.394Z,10.53
2018-09-15T08:11:59.934Z,14.77
2018-09-15T08:17:18.463Z,14.70
2018-09-15T08:22:37.020Z,11.47
2018-09-15T08:27:55.645Z,15.40
2018-09-15T08:33:13.149Z,13.60
2018-09-15T08:38:31.723Z,15.07
2018-09-15T08:43:50.307Z,22.50
2018-09-15T08:49:09.101Z,20.17
2018-09-15T08:54:27.678Z,16.87
2018-09-15T08:59:46.981Z,19.20
2018-09-15T09:05:05.600Z,20.87
2018-09-15T09:10:24.306Z,17.92
2018-09-15T09:15:42.779Z,18.50
2018-09-15T09:21:01.287Z,16.97
2018-09-15T09:26:19.926Z,17.63
2018-09-15T09:31:38.371Z,17.00
2018-09-15T09:36:57.555Z,11.30
2018-09-15T09:42:16.664Z,14.27
2018-09-15T09:47:35.237Z,25.23
2018-09-15T09:52:53.776Z,18.07
2018-09-15T09:58:12.940Z,16.73
2018-09-15T10:03:31.579Z,17.23
2018-09-15T10:08:50.144Z,25.27
2018-09-15T10:14:08.657Z,21.57
2018-09-15T10:19:27.326Z,22.00
2018-09-15T10:24:45.936Z,18.23
2018-09-15T10:30:05.647Z,14.30
2018-09-15T10:35:24.264Z,12.67
2018-09-15T10:40:42.816Z,10.77
2018-09-15T10:46:01.509Z,12.70
2018-09-15T10:51:19.992Z,13.73
2018-09-15T10:56:38.713Z,10.40
2018-09-15T11:01:57.311Z,19.60
2018-09-15T11:07:16.635Z,19.17
2018-09-15T11:12:35.170Z,8.70
2018-09-15T11:17:53.726Z,11.97
2018-09-15T11:23:13.514Z,9.53
2018-09-15T11:28:32.155Z,9.00
2018-09-15T11:33:50.735Z,6.97
2018-09-15T11:39:10.906Z,6.93
2018-09-15T11:44:29.406Z,6.00
2018-09-15T11:49:47.933Z,11.00
2018-09-15T11:55:06.596Z,3.37
2018-09-15T12:00:27.916Z,6.40
2018-09-15T12:05:46.475Z,5.77
2018-09-15T12:11:05.060Z,5.50
2018-09-15T12:16:23.634Z,5.80
2018-09-15T12:21:43.076Z,6.73
2018-09-15T12:27:01.570Z,5.73
2018-09-15T12:32:20.103Z,7.63
2018-09-15T12:37:38.673Z,5.80
2018-09-15T12:42:57.176Z,9.30
2018-09-15T12:48:15.725Z,7.83
2018-09-15T12:53:34.218Z,7.90
2018-09-15T12:58:53.042Z,5.57
2018-09-15T13:04:11.866Z,3.43
2018-09-15T13:09:31.194Z,4.50
2018-09-15T13:14:49.825Z,4.87
2018-09-15T13:20:08.691Z,8.87
2018-09-15T13:25:27.330Z,7.23
2018-09-15T13:30:45.835Z,8.70
2018-09-15T13:36:04.564Z,10.17
2018-09-15T13:41:23.169Z,5.40
2018-09-15T13:46:41.773Z,6.80
2018-09-15T13:52:00.326Z,8.23
2018-09-15T13:57:19.129Z,5.97
2018-09-15T14:02:43.970Z,7.63
2018-09-15T14:08:03.266Z,5.10
2018-09-15T14:13:21.835Z,7.10
2018-09-15T14:18:40.481Z,9.37
2018-09-15T14:29:27.469Z,8.87
2018-09-15T14:34:47.724Z,5.67
2018-09-15T14:40:06.735Z,9.23
2018-09-15T14:45:26.679Z,8.00
2018-09-15T14:50:45.247Z,6.27
2018-09-15T14:56:03.907Z,7.50
2018-09-15T15:01:22.445Z,5.30
2018-09-15T15:06:40.945Z,5.90
2018-09-15T15:11:59.459Z,8.47
2018-09-15T15:17:17.979Z,4.67
2018-09-15T15:22:37.239Z,9.40
2018-09-15T15:27:55.779Z,5.47
2018-09-15T15:33:14.367Z,6.87
2018-09-15T15:38:33.286Z,7.40
2018-09-15T15:43:51.819Z,9.57
2018-09-15T15:49:11.050Z,9.53
2018-09-15T15:54:29.633Z,19.00
2018-09-15T15:59:48.251Z,6.43
2018-09-15T16:05:07.812Z,11.73
2018-09-15T16:10:26.429Z,9.67
2018-09-15T16:15:44.986Z,7.57
2018-09-15T16:21:03.503Z,3.07
2018-09-15T16:26:22.075Z,6.33
2018-09-15T16:31:40.693Z,7.07
2018-09-15T16:36:59.215Z,11.53
2018-09-15T16:42:17.746Z,7.17
2018-09-15T16:47:36.714Z,6.93
2018-09-15T16:52:55.267Z,24.90
2018-09-15T16:58:14.568Z,11.03
2018-09-15T17:03:33.156Z,8.27
2018-09-15T17:08:51.689Z,6.20
2018-09-15T17:14:10.283Z,6.43
2018-09-15T17:19:30.413Z,10.70
2018-09-15T17:24:48.951Z,19.13
2018-09-15T17:30:08.135Z,7.27
2018-09-15T17:35:26.702Z,10.37
2018-09-15T17:40:45.262Z,9.10
2018-09-15T17:46:04.058Z,10.57
2018-09-15T17:51:22.805Z,7.90
2018-09-15T17:56:41.387Z,15.37
2018-09-15T18:01:59.960Z,9.53
2018-09-15T18:07:18.880Z,14.90
2018-09-15T18:12:38.441Z,8.80
2018-09-15T18:17:57.008Z,20.70
2018-09-15T18:23:15.576Z,13.67
2018-09-15T18:28:34.471Z,9.20
2018-09-15T18:33:53.068Z,9.67
2018-09-15T18:39:12.029Z,10.23
2018-09-15T18:44:30.569Z,12.30
2018-09-15T18:49:49.931Z,11.63
2018-09-15T18:55:08.544Z,12.67
2018-09-15T19:00:27.453Z,8.10
2018-09-15T19:05:47.026Z,9.57
2018-09-15T19:11:05.825Z,12.17
2018-09-15T19:16:24.400Z,12.97
2018-09-15T19:21:43.598Z,12.10
2018-09-15T19:27:02.208Z,11.83
2018-09-15T19:32:20.763Z,12.33
2018-09-15T19:37:39.371Z,12.80
2018-09-15T19:42:58.509Z,9.90
2018-09-15T19:48:17.124Z,13.20
2018-09-15T19:53:35.832Z,13.27
2018-09-15T19:58:54.376Z,12.80
2018-09-15T20:04:13.126Z,19.40
2018-09-15T20:09:31.642Z,11.47
2018-09-15T20:14:50.258Z,11.83
2018-09-15T20:20:07.542Z,13.80
2018-09-15T20:25:26.262Z,18.37
2018-09-15T20:30:45.476Z,11.43
2018-09-15T20:36:04.279Z,16.10
2018-09-15T20:41:22.847Z,21.47
2018-09-15T20:46:41.398Z,13.37
2018-09-15T20:51:59.954Z,12.17
2018-09-15T20:57:18.608Z,10.93
2018-09-15T21:02:37.257Z,13.27
2018-09-15T21:07:55.836Z,13.87
2018-09-15T21:13:14.451Z,15.57
2018-09-15T21:18:33.343Z,16.30
2018-09-15T21:23:51.969Z,17.70
2018-09-15T21:29:10.898Z,15.37
2018-09-15T21:34:29.563Z,13.37
2018-09-15T21:39:48.135Z,17.33
2018-09-15T21:45:07.752Z,19.92
2018-09-15T21:50:26.868Z,16.33
2018-09-15T21:55:45.379Z,12.87
2018-09-15T22:01:04.768Z,17.83
2018-09-15T22:06:23.289Z,17.83
2018-09-15T22:11:42.583Z,16.63
2018-09-15T22:17:01.748Z,15.32
2018-09-15T22:22:20.755Z,22.87
2018-09-15T22:27:39.267Z,20.90
2018-09-15T22:32:57.858Z,17.67
2018-09-15T22:38:16.362Z,21.77
2018-09-15T22:43:34.975Z,16.93
2018-09-15T22:48:53.550Z,18.23
2018-09-15T22:54:12.128Z,17.90
2018-09-15T22:59:31.565Z,17.77
2018-09-15T23:04:50.100Z,25.50
2018-09-15T23:10:08.651Z,24.93
2018-09-15T23:15:27.799Z,25.33
2018-09-15T23:20:46.380Z,23.33
2018-09-15T23:26:05.432Z,25.77
2018-09-15T23:31:24.114Z,25.17
2018-09-15T23:36:43.493Z,29.30
2018-09-15T23:42:02.153Z,28.37
2018-09-15T23:47:23.594Z,21.33
2018-09-15T23:52:42.691Z,29.03
2018-09-15T23:58:01.860Z,23.77
